createdAt,value
2023-05-21T00:00:50.483Z,99093.19
2023-05-21T00:03:17.254Z,99088.09
2023-05-21T00:05:44.392Z,99084.09
2023-05-21T00:08:12.757Z,99084.41
2023-05-21T00:10:39.441Z,99085.53
2023-05-21T00:13:06.124Z,99076.91
2023-05-21T00:15:32.860Z,99079.47
2023-05-21T00:17:59.702Z,99061.06
2023-05-21T00:20:26.287Z,99071.31
2023-05-21T00:22:53.168Z,99063.16
2023-05-21T00:25:21.109Z,99058.84
2023-05-21T00:27:47.646Z,99052.13
2023-05-21T00:30:14.182Z,99056.31
2023-05-21T00:32:40.769Z,99051.69
2023-05-21T00:35:08.645Z,99049.59
2023-05-21T00:37:35.350Z,99047.69
2023-05-21T00:40:02.383Z,99043.84
2023-05-21T00:42:30.453Z,99047.19
2023-05-21T00:44:57.072Z,99041.78
2023-05-21T00:47:24.367Z,99037.78
2023-05-21T00:49:51.178Z,99035.84
2023-05-21T00:52:17.793Z,99033.47
2023-05-21T00:54:44.412Z,99039.84
2023-05-21T00:57:11.217Z,99034.91
2023-05-21T00:59:39.449Z,99030.59
2023-05-21T01:02:06.319Z,99032.03
2023-05-21T01:04:33.030Z,99019.56
2023-05-21T01:06:59.577Z,99025.00
2023-05-21T01:09:26.902Z,99024.66
2023-05-21T01:11:55.442Z,99019.56
2023-05-21T01:14:24.055Z,99022.28
2023-05-21T01:16:52.739Z,99026.44
2023-05-21T01:19:21.440Z,99012.22
2023-05-21T01:21:50.628Z,99015.91
2023-05-21T01:24:19.308Z,99009.66
2023-05-21T01:26:45.972Z,99017.81
2023-05-21T01:29:13.311Z,99006.47
2023-05-21T01:31:52.687Z,99006.78
2023-05-21T01:34:23.881Z,99007.09
2023-05-21T01:36:57.338Z,99008.56
2023-05-21T01:39:30.222Z,99005.69
2023-05-21T01:41:57.978Z,99008.72
2023-05-21T01:44:25.666Z,99008.25
2023-05-21T01:46:54.450Z,98999.94
2023-05-21T01:49:22.530Z,99008.09
2023-05-21T01:51:49.766Z,98998.97
2023-05-21T01:54:16.427Z,98995.81
2023-05-21T01:56:44.353Z,98999.63
2023-05-21T01:59:11.771Z,99006.50
2023-05-21T02:01:38.340Z,98993.09
2023-05-21T02:04:05.324Z,99003.97
2023-05-21T02:06:31.898Z,99005.38
2023-05-21T02:08:58.429Z,99004.91
2023-05-21T02:11:25.022Z,98997.06
2023-05-21T02:13:52.890Z,98997.38
2023-05-21T02:16:19.649Z,98997.72
2023-05-21T02:18:46.294Z,98992.44
2023-05-21T02:21:12.925Z,98993.56
2023-05-21T02:23:39.448Z,98995.78
2023-05-21T02:26:05.976Z,98991.94
2023-05-21T02:28:32.548Z,98991.66
2023-05-21T02:31:00.580Z,98992.75
2023-05-21T02:33:27.124Z,98989.25
2023-05-21T02:35:53.890Z,98991.94
2023-05-21T02:38:20.684Z,98991.66
2023-05-21T02:40:47.266Z,98985.41
2023-05-21T02:43:15.410Z,98985.41
2023-05-21T02:45:42.808Z,98990.84
2023-05-21T02:48:10.883Z,98987.81
2023-05-21T02:50:37.417Z,98988.00
2023-05-21T02:53:04.161Z,98987.19
2023-05-21T02:55:30.885Z,98985.28
2023-05-21T02:57:57.425Z,98985.59
2023-05-21T03:00:24.007Z,98980.16
2023-05-21T03:02:50.550Z,98986.38
2023-05-21T03:05:18.526Z,98991.00
2023-05-21T03:07:45.234Z,98988.31
2023-05-21T03:10:11.916Z,98986.38
2023-05-21T03:12:38.679Z,98980.97
2023-05-21T03:15:06.042Z,98981.28
2023-05-21T03:17:32.697Z,98979.34
2023-05-21T03:19:59.292Z,98976.97
2023-05-21T03:22:27.246Z,98984.00
2023-05-21T03:24:53.802Z,98969.63
2023-05-21T03:27:20.330Z,98970.72
2023-05-21T03:29:47.008Z,98981.91
2023-05-21T03:32:13.802Z,98986.53
2023-05-21T03:34:40.696Z,98981.09
2023-05-21T03:37:07.378Z,98987.63
2023-05-21T03:39:35.268Z,98983.81
2023-05-21T03:42:01.911Z,98978.38
2023-05-21T03:44:28.483Z,98982.69
2023-05-21T03:46:55.024Z,98986.69
2023-05-21T03:49:21.622Z,98981.28
2023-05-21T03:51:48.335Z,98985.28
2023-05-21T03:54:15.014Z,98988.94
2023-05-21T03:56:42.934Z,98980.16
2023-05-21T03:59:09.435Z,98986.88
2023-05-21T04:01:36.281Z,98983.50
2023-05-21T04:04:03.076Z,98995.81
2023-05-21T04:06:29.856Z,98983.16
2023-05-21T04:08:56.410Z,98991.63
2023-05-21T04:11:23.024Z,98983.34
2023-05-21T04:13:50.975Z,98985.53
2023-05-21T04:16:17.607Z,98997.03
2023-05-21T04:18:45.638Z,98994.66
2023-05-21T04:21:13.135Z,98994.16
2023-05-21T04:23:39.756Z,98989.81
2023-05-21T04:26:06.466Z,99000.97
2023-05-21T04:28:32.993Z,98999.38
2023-05-21T04:31:00.916Z,98996.94
2023-05-21T04:33:27.508Z,98995.31
2023-05-21T04:35:55.384Z,98995.94
2023-05-21T04:38:22.010Z,98991.13
2023-05-21T04:40:50.536Z,98995.44
2023-05-21T04:43:17.171Z,99001.47
2023-05-21T04:45:43.857Z,98990.75
2023-05-21T04:48:12.260Z,98994.88
2023-05-21T04:50:38.827Z,98988.75
2023-05-21T04:53:05.525Z,98987.09
2023-05-21T04:55:32.028Z,98994.41
2023-05-21T04:57:58.600Z,98995.16
2023-05-21T05:00:25.311Z,98989.50
2023-05-21T05:02:51.914Z,98981.78
2023-05-21T05:05:19.952Z,98982.69
2023-05-21T05:07:46.471Z,98980.00
2023-05-21T05:10:13.029Z,98971.09
2023-05-21T05:12:39.708Z,98976.47
2023-05-21T05:15:07.321Z,98977.06
2023-05-21T05:17:33.906Z,98982.88
2023-05-21T05:20:00.412Z,98977.03
2023-05-21T05:22:28.456Z,98982.28
2023-05-21T05:24:55.023Z,98976.41
2023-05-21T05:27:21.725Z,98977.00
2023-05-21T05:29:48.348Z,98978.50
2023-05-21T05:32:14.972Z,98975.53
2023-05-21T05:34:41.675Z,98971.56
2023-05-21T05:37:08.402Z,98973.63
2023-05-21T05:39:36.428Z,98970.81
2023-05-21T05:42:03.564Z,98988.91
2023-05-21T05:44:30.172Z,98988.91
2023-05-21T05:46:56.731Z,98985.59
2023-05-21T05:49:23.357Z,98994.00
2023-05-21T05:51:50.049Z,98989.41
2023-05-21T05:54:16.577Z,98987.22
2023-05-21T05:56:44.562Z,98995.06
2023-05-21T05:59:11.110Z,98993.06
2023-05-21T06:01:37.614Z,98989.84
2023-05-21T06:04:04.409Z,98981.00
2023-05-21T06:06:31.095Z,98986.63
2023-05-21T06:08:57.599Z,98987.09
2023-05-21T06:11:24.286Z,98983.72
2023-05-21T06:13:52.211Z,98990.28
2023-05-21T06:16:19.029Z,98989.06
2023-05-21T06:18:45.627Z,98986.13
2023-05-21T06:21:12.343Z,98974.34
2023-05-21T06:23:39.020Z,98969.09
2023-05-21T06:26:05.699Z,98979.03
2023-05-21T06:28:32.259Z,98980.88
2023-05-21T06:31:02.738Z,98982.81
2023-05-21T06:33:29.525Z,98992.72
2023-05-21T06:35:56.150Z,98992.75
2023-05-21T06:38:22.839Z,98985.53
2023-05-21T06:40:50.074Z,98983.09
2023-05-21T06:43:16.642Z,98977.69
2023-05-21T06:45:43.232Z,98984.50
2023-05-21T06:48:11.288Z,98983.69
2023-05-21T06:50:38.007Z,98984.63
2023-05-21T06:53:04.543Z,98985.66
2023-05-21T06:55:31.223Z,98988.94
2023-05-21T06:57:57.813Z,98982.06
2023-05-21T07:00:24.641Z,98985.00
2023-05-21T07:02:51.634Z,98989.56
2023-05-21T07:05:19.914Z,98982.72
2023-05-21T07:07:46.444Z,98989.09
2023-05-21T07:10:12.981Z,98984.13
2023-05-21T07:12:39.678Z,98985.53
2023-05-21T07:15:07.179Z,98985.91
2023-05-21T07:17:33.776Z,98989.53
2023-05-21T07:20:00.385Z,98979.47
2023-05-21T07:22:28.598Z,98981.09
2023-05-21T07:24:55.218Z,98985.16
2023-05-21T07:27:25.870Z,98989.16
2023-05-21T07:29:52.702Z,98980.31
2023-05-21T07:32:19.427Z,98983.19
2023-05-21T07:34:45.963Z,98981.66
2023-05-21T07:37:12.523Z,98979.97
2023-05-21T07:39:40.507Z,98975.69
2023-05-21T07:42:07.181Z,98968.69
2023-05-21T07:44:33.745Z,98970.25
2023-05-21T07:47:00.415Z,98968.72
2023-05-21T07:49:26.917Z,98962.78
2023-05-21T07:51:53.434Z,98971.53
2023-05-21T07:54:19.998Z,98965.25
2023-05-21T07:56:47.927Z,98961.31
2023-05-21T07:59:16.287Z,98960.97
2023-05-21T08:01:42.854Z,98958.28
2023-05-21T08:04:09.744Z,98956.66
2023-05-21T08:06:36.334Z,98964.13
2023-05-21T08:09:03.128Z,98963.69
2023-05-21T08:11:29.638Z,98964.44
2023-05-21T08:13:57.605Z,98959.63
2023-05-21T08:16:24.393Z,98969.81
2023-05-21T08:18:50.948Z,98964.63
2023-05-21T08:21:17.594Z,98962.91
2023-05-21T08:23:44.661Z,98965.03
2023-05-21T08:26:11.278Z,98968.19
2023-05-21T08:28:38.354Z,98966.13
2023-05-21T08:31:06.421Z,98961.47
2023-05-21T08:33:35.369Z,98952.25
2023-05-21T08:36:02.034Z,98958.66
2023-05-21T08:38:30.226Z,98956.97
2023-05-21T08:40:58.376Z,98948.28
2023-05-21T08:43:27.545Z,98956.59
2023-05-21T08:45:55.136Z,98960.97
2023-05-21T08:48:24.231Z,98959.19
2023-05-21T08:50:52.246Z,98955.31
2023-05-21T08:53:27.125Z,98954.66
2023-05-21T08:55:56.163Z,98951.75
2023-05-21T08:58:23.055Z,98961.63
2023-05-21T09:00:49.796Z,98960.66
2023-05-21T09:03:16.981Z,98954.69
2023-05-21T09:05:45.450Z,98951.44
2023-05-21T09:08:15.024Z,98949.13
2023-05-21T09:10:48.504Z,98954.69
2023-05-21T09:13:16.601Z,98957.19
2023-05-21T09:15:43.832Z,98954.38
2023-05-21T09:18:10.432Z,98945.44
2023-05-21T09:20:37.146Z,98950.75
2023-05-21T09:23:06.210Z,98936.72
2023-05-21T09:25:33.294Z,98950.97
2023-05-21T09:27:59.936Z,98952.69
2023-05-21T09:30:34.881Z,98948.97
2023-05-21T09:33:02.636Z,98957.84
2023-05-21T09:35:29.480Z,98948.84
2023-05-21T09:37:56.044Z,98956.38
2023-05-21T09:40:24.285Z,98950.38
2023-05-21T09:42:52.107Z,98948.84
2023-05-21T09:45:19.643Z,98952.00
2023-05-21T09:47:48.495Z,98951.13
2023-05-21T09:50:19.237Z,98955.25
2023-05-21T09:52:46.214Z,98951.66
2023-05-21T09:55:13.948Z,98948.28
2023-05-21T09:57:42.631Z,98953.47
2023-05-21T10:00:16.780Z,98951.03
2023-05-21T10:02:45.534Z,98937.63
2023-05-21T10:05:13.433Z,98936.69
2023-05-21T10:07:42.083Z,98935.16
2023-05-21T10:10:13.263Z,98929.22
2023-05-21T10:12:43.810Z,98923.16
2023-05-21T10:15:14.375Z,98924.22
2023-05-21T10:17:41.814Z,98921.00
2023-05-21T10:20:11.100Z,98918.28
2023-05-21T10:22:37.904Z,98926.88
2023-05-21T10:25:06.659Z,98916.19
2023-05-21T10:27:34.682Z,98910.91
2023-05-21T10:30:04.155Z,98911.25
2023-05-21T10:32:31.445Z,98899.31
2023-05-21T10:35:00.727Z,98897.47
2023-05-21T10:37:29.010Z,98898.16
2023-05-21T10:39:56.550Z,98899.84
2023-05-21T10:42:44.657Z,98904.13
2023-05-21T10:45:19.795Z,98904.72
2023-05-21T10:47:58.638Z,98903.28
2023-05-21T10:50:53.901Z,98908.56
2023-05-21T10:53:29.024Z,98902.19
2023-05-21T10:56:05.217Z,98905.69
2023-05-21T10:58:47.617Z,98896.25
2023-05-21T11:01:17.079Z,98898.91
2023-05-21T11:03:43.862Z,98902.75
2023-05-21T11:06:10.601Z,98905.31
2023-05-21T11:08:38.585Z,98907.97
2023-05-21T11:11:05.333Z,98896.56
2023-05-21T11:13:45.721Z,98907.31
2023-05-21T11:16:17.795Z,98900.56
2023-05-21T11:19:00.606Z,98887.94
2023-05-21T11:21:30.247Z,98895.47
2023-05-21T11:24:00.229Z,98881.59
2023-05-21T11:26:27.722Z,98886.84
2023-05-21T11:29:07.301Z,98878.13
2023-05-21T11:31:35.845Z,98886.63
2023-05-21T11:34:15.344Z,98880.72
2023-05-21T11:36:44.787Z,98872.16
2023-05-21T11:39:13.444Z,98871.13
2023-05-21T11:41:53.261Z,98868.44
2023-05-21T11:44:37.432Z,98869.38
2023-05-21T11:47:06.901Z,98867.56
2023-05-21T11:49:34.195Z,98867.44
2023-05-21T11:52:01.777Z,98865.72
2023-05-21T11:54:28.684Z,98872.16
2023-05-21T11:56:55.793Z,98848.13
2023-05-21T11:59:22.320Z,98856.72
2023-05-21T12:01:48.833Z,98850.59
2023-05-21T12:04:16.715Z,98861.13
2023-05-21T12:06:43.605Z,98853.22
2023-05-21T12:09:10.446Z,98866.94
2023-05-21T12:11:38.605Z,98858.22
2023-05-21T12:14:07.217Z,98858.13
2023-05-21T12:16:34.256Z,98852.91
2023-05-21T12:19:01.829Z,98846.84
2023-05-21T12:21:30.363Z,98860.34
2023-05-21T12:23:57.073Z,98860.97
2023-05-21T12:26:24.337Z,98856.25
2023-05-21T12:28:51.768Z,98856.47
2023-05-21T12:31:18.421Z,98857.34
2023-05-21T12:33:45.177Z,98848.28
2023-05-21T12:36:22.047Z,98856.84
2023-05-21T12:38:50.323Z,98849.63
2023-05-21T12:41:17.735Z,98845.69
2023-05-21T12:43:44.573Z,98836.63
2023-05-21T12:46:11.524Z,98845.97
2023-05-21T12:48:38.149Z,98843.53
2023-05-21T12:51:04.717Z,98835.06
2023-05-21T12:53:36.781Z,98840.78
2023-05-21T12:56:09.945Z,98844.16
2023-05-21T12:58:36.632Z,98835.47
2023-05-21T13:01:06.115Z,98839.34
2023-05-21T13:03:32.897Z,98834.53
2023-05-21T13:05:59.888Z,98832.91
2023-05-21T13:08:26.800Z,98840.78
2023-05-21T13:10:53.557Z,98835.28
2023-05-21T13:13:21.584Z,98840.78
2023-05-21T13:15:48.177Z,98839.34
2023-05-21T13:18:14.922Z,98825.94
2023-05-21T13:20:41.434Z,98824.94
2023-05-21T13:23:10.561Z,98831.63
2023-05-21T13:25:38.117Z,98828.66
2023-05-21T13:28:05.189Z,98832.97
2023-05-21T13:30:33.232Z,98832.72
2023-05-21T13:33:00.118Z,98833.53
2023-05-21T13:35:26.882Z,98838.53
2023-05-21T13:37:53.476Z,98838.28
2023-05-21T13:40:20.359Z,98830.19
2023-05-21T13:42:48.540Z,98826.84
2023-05-21T13:45:17.020Z,98820.06
2023-05-21T13:47:46.111Z,98828.84
2023-05-21T13:50:12.851Z,98827.00
2023-05-21T13:52:39.643Z,98825.94
2023-05-21T13:55:07.212Z,98829.84
2023-05-21T13:57:34.098Z,98819.97
2023-05-21T14:00:00.674Z,98828.13
2023-05-21T14:02:27.545Z,98817.66
2023-05-21T14:04:55.705Z,98820.94
2023-05-21T14:07:22.362Z,98820.47
2023-05-21T14:09:49.180Z,98814.69
2023-05-21T14:12:15.827Z,98817.44
2023-05-21T14:14:42.625Z,98813.63
2023-05-21T14:17:09.230Z,98806.25
2023-05-21T14:19:35.912Z,98801.84
2023-05-21T14:22:04.004Z,98802.19
2023-05-21T14:24:30.683Z,98807.19
2023-05-21T14:26:57.213Z,98803.56
2023-05-21T14:29:24.035Z,98799.97
2023-05-21T14:31:50.812Z,98798.94
2023-05-21T14:34:17.425Z,98794.25
2023-05-21T14:36:44.117Z,98793.63
2023-05-21T14:39:12.039Z,98798.88
2023-05-21T14:41:39.415Z,98792.63
2023-05-21T14:44:06.024Z,98787.34
2023-05-21T14:46:32.817Z,98793.72
2023-05-21T14:48:59.630Z,98793.94
2023-05-21T14:51:26.179Z,98786.09
2023-05-21T14:53:52.903Z,98779.91
2023-05-21T14:56:20.968Z,98781.47
2023-05-21T14:58:47.525Z,98778.53
2023-05-21T15:01:14.287Z,98786.19
2023-05-21T15:03:40.964Z,98783.72
2023-05-21T15:06:07.854Z,98784.03
2023-05-21T15:08:34.382Z,98784.09
2023-05-21T15:11:01.099Z,98786.31
2023-05-21T15:13:29.085Z,98782.38
2023-05-21T15:15:55.908Z,98788.22
2023-05-21T15:18:22.458Z,98788.91
2023-05-21T15:20:49.156Z,98776.59
2023-05-21T15:23:18.821Z,98773.06
2023-05-21T15:25:45.640Z,98766.16
2023-05-21T15:28:12.695Z,98760.09
2023-05-21T15:30:40.971Z,98764.53
2023-05-21T15:33:07.848Z,98765.00
2023-05-21T15:35:35.264Z,98763.97
2023-05-21T15:38:02.224Z,98767.38
2023-05-21T15:40:28.754Z,98764.22
2023-05-21T15:42:55.320Z,98767.19
2023-05-21T15:45:22.077Z,98766.66
2023-05-21T15:47:50.003Z,98766.16
2023-05-21T15:50:16.627Z,98767.97
2023-05-21T15:52:43.314Z,98767.94
2023-05-21T15:55:09.986Z,98768.16
2023-05-21T15:57:36.624Z,98764.84
2023-05-21T16:00:03.548Z,98759.88
2023-05-21T16:02:30.262Z,98754.13
2023-05-21T16:04:58.251Z,98757.38
2023-05-21T16:07:24.901Z,98766.56
2023-05-21T16:09:51.488Z,98763.72
2023-05-21T16:12:18.232Z,98757.50
2023-05-21T16:14:45.042Z,98755.63
2023-05-21T16:17:11.741Z,98756.41
2023-05-21T16:19:38.957Z,98758.91
2023-05-21T16:22:07.857Z,98746.53
2023-05-21T16:24:35.973Z,98750.28
2023-05-21T16:27:02.748Z,98755.22
2023-05-21T16:29:29.262Z,98745.91
2023-05-21T16:31:56.072Z,98752.22
2023-05-21T16:34:22.661Z,98742.63
2023-05-21T16:36:49.194Z,98744.19
2023-05-21T16:39:17.183Z,98739.06
2023-05-21T16:41:43.719Z,98733.69
2023-05-21T16:44:10.438Z,98738.56
2023-05-21T16:46:37.409Z,98730.72
2023-05-21T16:49:04.037Z,98723.66
2023-05-21T16:51:30.714Z,98723.38
2023-05-21T16:53:57.387Z,98724.00
2023-05-21T16:56:26.560Z,98726.00
2023-05-21T16:58:53.119Z,98716.66
2023-05-21T17:01:19.857Z,98717.28
2023-05-21T17:03:46.785Z,98721.28
2023-05-21T17:06:13.418Z,98728.78
2023-05-21T17:08:40.016Z,98723.91
2023-05-21T17:11:06.645Z,98722.63
2023-05-21T17:13:34.584Z,98734.19
2023-05-21T17:16:01.184Z,98741.47
2023-05-21T17:18:27.723Z,98737.25
2023-05-21T17:20:54.407Z,98751.13
2023-05-21T17:23:21.010Z,98748.25
2023-05-21T17:25:47.887Z,98744.06
2023-05-21T17:28:14.432Z,98747.09
2023-05-21T17:30:42.338Z,98742.84
2023-05-21T17:33:09.075Z,98746.66
2023-05-21T17:35:35.964Z,98750.41
2023-05-21T17:38:02.680Z,98744.59
2023-05-21T17:40:29.201Z,98751.50
2023-05-21T17:42:55.779Z,98739.72
2023-05-21T17:45:22.336Z,98752.66
2023-05-21T17:47:50.478Z,98752.06
2023-05-21T17:50:17.064Z,98744.66
2023-05-21T17:52:43.648Z,98740.34
2023-05-21T17:55:10.565Z,98740.84
2023-05-21T17:57:37.267Z,98745.66
2023-05-21T18:00:04.363Z,98739.00
2023-05-21T18:02:31.071Z,98739.06
2023-05-21T18:04:59.019Z,98741.50
2023-05-21T18:07:25.568Z,98747.84
2023-05-21T18:09:52.126Z,98747.56
2023-05-21T18:12:18.720Z,98742.09
2023-05-21T18:14:45.285Z,98744.19
2023-05-21T18:17:11.801Z,98741.47
2023-05-21T18:19:38.375Z,98741.53
2023-05-21T18:22:06.650Z,98739.22
2023-05-21T18:24:33.516Z,98739.72
2023-05-21T18:27:00.129Z,98737.84
2023-05-21T18:29:26.729Z,98737.56
2023-05-21T18:31:53.812Z,98731.34
2023-05-21T18:34:20.448Z,98736.56
2023-05-21T18:36:47.018Z,98746.91
2023-05-21T18:39:15.007Z,98750.94
2023-05-21T18:41:41.679Z,98743.88
2023-05-21T18:44:08.338Z,98746.22
2023-05-21T18:46:35.013Z,98741.59
2023-05-21T18:49:01.582Z,98744.38
2023-05-21T18:51:28.233Z,98746.03
2023-05-21T18:53:54.745Z,98754.53
2023-05-21T18:56:22.714Z,98751.00
2023-05-21T18:58:49.339Z,98751.09
2023-05-21T19:01:16.260Z,98756.34
2023-05-21T19:03:42.945Z,98762.66
2023-05-21T19:06:09.514Z,98765.91
2023-05-21T19:08:36.051Z,98767.50
2023-05-21T19:11:02.972Z,98775.09
2023-05-21T19:13:30.930Z,98778.31
2023-05-21T19:15:57.559Z,98773.22
2023-05-21T19:18:24.229Z,98776.03
2023-05-21T19:20:50.907Z,98775.66
2023-05-21T19:23:17.652Z,98773.72
2023-05-21T19:25:44.236Z,98776.09
2023-05-21T19:28:10.780Z,98778.53
2023-05-21T19:30:38.978Z,98783.25
2023-05-21T19:33:05.670Z,98780.16
2023-05-21T19:35:32.306Z,98786.16
2023-05-21T19:37:59.676Z,98786.56
2023-05-21T19:40:27.767Z,98788.94
2023-05-21T19:42:54.319Z,98786.22
2023-05-21T19:45:21.090Z,98788.59
2023-05-21T19:47:49.261Z,98790.56
2023-05-21T19:50:15.914Z,98798.53
2023-05-21T19:52:42.477Z,98794.97
2023-05-21T19:55:09.332Z,98792.66
2023-05-21T19:57:36.154Z,98787.16
2023-05-21T20:00:03.280Z,98791.94
2023-05-21T20:02:29.888Z,98790.00
2023-05-21T20:04:57.773Z,98789.63
2023-05-21T20:07:24.507Z,98791.28
2023-05-21T20:09:51.109Z,98787.72
2023-05-21T20:12:17.864Z,98787.34
2023-05-21T20:14:44.410Z,98791.69
2023-05-21T20:17:11.034Z,98795.66
2023-05-21T20:19:37.872Z,98790.53
2023-05-21T20:22:06.083Z,98793.69
2023-05-21T20:24:32.760Z,98795.25
2023-05-21T20:26:59.345Z,98794.50
2023-05-21T20:29:26.015Z,98796.47
2023-05-21T20:31:52.588Z,98798.03
2023-05-21T20:34:19.193Z,98793.69
2023-05-21T20:36:45.859Z,98792.53
2023-05-21T20:39:13.794Z,98790.13
2023-05-21T20:41:40.358Z,98788.59
2023-05-21T20:44:06.935Z,98792.91
2023-05-21T20:46:34.216Z,98793.31
2023-05-21T20:49:00.911Z,98791.75
2023-05-21T20:51:27.517Z,98794.09
2023-05-21T20:53:54.033Z,98790.16
2023-05-21T20:56:33.615Z,98796.50
2023-05-21T20:59:08.576Z,98793.31
2023-05-21T21:01:36.491Z,98796.47
2023-05-21T21:04:03.474Z,98791.38
2023-05-21T21:06:30.094Z,98796.09
2023-05-21T21:08:56.702Z,98798.84
2023-05-21T21:11:24.934Z,98803.19
2023-05-21T21:13:51.568Z,98802.78
2023-05-21T21:16:18.143Z,98799.22
2023-05-21T21:18:44.929Z,98799.97
2023-05-21T21:21:11.476Z,98794.44
2023-05-21T21:23:38.223Z,98796.00
2023-05-21T21:26:04.806Z,98797.56
2023-05-21T21:28:32.714Z,98799.91
2023-05-21T21:30:59.365Z,98792.00
2023-05-21T21:33:25.917Z,98803.03
2023-05-21T21:35:52.509Z,98794.38
2023-05-21T21:38:19.230Z,98804.63
2023-05-21T21:40:45.748Z,98799.91
2023-05-21T21:43:12.312Z,98794.38
2023-05-21T21:45:40.395Z,98798.31
2023-05-21T21:48:07.183Z,98800.69
2023-05-21T21:50:33.807Z,98794.78
2023-05-21T21:53:00.551Z,98804.66
2023-05-21T21:55:27.071Z,98807.00
2023-05-21T21:57:53.623Z,98814.09
2023-05-21T22:00:20.459Z,98819.25
2023-05-21T22:02:48.392Z,98823.16
2023-05-21T22:05:15.039Z,98832.63
2023-05-21T22:07:42.062Z,98840.88
2023-05-21T22:10:09.407Z,98825.88
2023-05-21T22:12:36.002Z,98837.28
2023-05-21T22:15:02.610Z,98821.50
2023-05-21T22:17:29.170Z,98821.13
2023-05-21T22:19:57.352Z,98821.88
2023-05-21T22:22:24.067Z,98817.91
2023-05-21T22:24:50.599Z,98815.13
2023-05-21T22:27:17.286Z,98813.16
2023-05-21T22:29:43.788Z,98807.59
2023-05-21T22:32:10.478Z,98810.34
2023-05-21T22:34:37.060Z,98812.72
2023-05-21T22:37:05.203Z,98806.00
2023-05-21T22:39:31.764Z,98802.84
2023-05-21T22:41:58.400Z,98802.09
2023-05-21T22:44:25.012Z,98797.00
2023-05-21T22:46:51.591Z,98801.34
2023-05-21T22:49:18.264Z,98798.59
2023-05-21T22:51:44.999Z,98787.56
2023-05-21T22:54:13.144Z,98786.03
2023-05-21T22:56:39.812Z,98785.25
2023-05-21T22:59:06.525Z,98782.50
2023-05-21T23:01:33.438Z,98788.47
2023-05-21T23:04:00.047Z,98791.66
2023-05-21T23:06:26.610Z,98792.03
2023-05-21T23:08:53.203Z,98783.38
2023-05-21T23:11:21.206Z,98785.38
2023-05-21T23:13:47.746Z,98784.97
2023-05-21T23:16:14.447Z,98792.44
2023-05-21T23:18:41.051Z,98794.03
2023-05-21T23:21:07.967Z,98791.28
2023-05-21T23:23:34.587Z,98784.94
2023-05-21T23:26:01.161Z,98781.41
2023-05-21T23:28:29.085Z,98788.09
2023-05-21T23:30:55.671Z,98784.94
2023-05-21T23:33:22.422Z,98782.53
2023-05-21T23:35:49.008Z,98782.16
2023-05-21T23:38:15.714Z,98779.78
2023-05-21T23:40:42.268Z,98795.53
2023-05-21T23:43:08.798Z,98782.94
2023-05-21T23:45:36.866Z,98786.88
2023-05-21T23:48:03.912Z,98786.09
2023-05-21T23:50:30.555Z,98779.38
2023-05-21T23:52:57.273Z,98780.56
2023-05-21T23:55:23.852Z,98784.88
2023-05-21T23:57:50.449Z,98773.06
